Time;durP1;ratioP1;P1;durP2;ratioP2;P2;SDS_P1;SDS_P2;PMS_P1;PMS_P2;Temp;Humidity;BMP_temperature;BMP_pressure;BME280_temperature;BME280_humidity;BME280_pressure;Samples;Min_cycle;Max_cycle;Signal;HPM_P1;HPM_P2
2023/12/03 00:01:51;;;;;;;19.55;10.25;;;;;;;0.95;47.13;101540.91;4938925;29;20114;-76
2023/12/03 00:04:19;;;;;;;17.42;10.40;;;;;;;0.96;47.09;101531.03;4942104;28;20087;-76
2023/12/03 00:06:48;;;;;;;20.48;10.48;;;;;;;0.96;47.04;101539.09;4923264;29;20040;-76
2023/12/03 00:09:16;;;;;;;20.67;10.40;;;;;;;0.95;46.93;101540.91;4921684;29;20050;-76
2023/12/03 00:11:46;;;;;;;20.55;11.02;;;;;;;0.95;47.07;101538.22;4942798;28;20087;-76
2023/12/03 00:14:14;;;;;;;20.05;10.82;;;;;;;0.94;46.96;101535.59;4945722;28;20135;-77
2023/12/03 00:16:41;;;;;;;21.00;11.32;;;;;;;0.94;46.88;101535.59;4937137;29;20075;-76
2023/12/03 00:19:09;;;;;;;20.05;9.98;;;;;;;0.93;46.96;101541.94;4941026;28;20074;-76
2023/12/03 00:21:37;;;;;;;18.25;10.55;;;;;;;0.93;47.04;101539.25;4923082;29;20075;-77
2023/12/03 00:24:06;;;;;;;21.27;10.25;;;;;;;0.92;47.13;101534.78;4943417;28;20139;-77
2023/12/03 00:26:34;;;;;;;18.05;9.80;;;;;;;0.90;47.15;101529.44;4926902;29;20118;-76
2023/12/03 00:29:03;;;;;;;17.05;10.40;;;;;;;0.91;46.90;101533.91;4940220;29;20134;-74
2023/12/03 00:31:32;;;;;;;18.50;9.95;;;;;;;0.91;47.23;101539.28;4946440;28;20106;-74
2023/12/03 00:34:00;;;;;;;21.00;10.65;;;;;;;0.90;47.25;101533.94;4930278;28;20055;-74
2023/12/03 00:36:28;;;;;;;20.67;10.68;;;;;;;0.90;47.28;101536.66;4946126;29;20157;-76
2023/12/03 00:38:56;;;;;;;19.52;10.93;;;;;;;0.91;47.32;101541.09;4945882;28;20051;-76
2023/12/03 00:41:24;;;;;;;20.92;11.13;;;;;;;0.91;47.20;101538.41;4940888;28;20051;-78
2023/12/03 00:43:52;;;;;;;19.92;10.65;;;;;;;0.92;47.06;101542.88;4936676;28;20095;-76
2023/12/03 00:46:22;;;;;;;21.33;10.55;;;;;;;0.93;47.28;101539.25;4942357;29;20078;-75
2023/12/03 00:48:50;;;;;;;21.92;10.60;;;;;;;0.91;47.14;101544.69;4925274;28;20047;-77
2023/12/03 00:51:18;;;;;;;19.35;10.13;;;;;;;0.92;47.44;101545.56;4945216;29;20122;-77
2023/12/03 00:53:46;;;;;;;19.25;10.90;;;;;;;0.93;47.00;101550.03;4942577;29;20151;-76
2023/12/03 00:56:14;;;;;;;22.60;11.30;;;;;;;0.92;47.28;101549.13;4933277;29;20166;-76
2023/12/03 00:58:42;;;;;;;22.08;11.23;;;;;;;0.91;47.29;101542.00;4923806;29;20523;-79
2023/12/03 01:01:10;;;;;;;21.65;10.80;;;;;;;0.91;47.19;101549.19;4945066;28;20047;-76
2023/12/03 01:03:39;;;;;;;20.42;10.48;;;;;;;0.91;47.43;101551.88;4941521;29;20047;-76
2023/12/03 01:06:08;;;;;;;21.42;11.82;;;;;;;0.90;47.41;101553.69;4946159;28;20062;-76
2023/12/03 01:08:36;;;;;;;20.48;10.80;;;;;;;0.89;47.45;101557.31;4949608;28;20073;-76
2023/12/03 01:11:05;;;;;;;20.98;11.30;;;;;;;0.89;47.46;101553.75;4962425;28;20463;-76
2023/12/03 01:13:33;;;;;;;23.02;11.50;;;;;;;0.89;47.66;101562.72;4940354;29;20051;-76
2023/12/03 01:16:01;;;;;;;20.25;10.93;;;;;;;0.88;47.55;101560.94;4935852;29;20523;-76
2023/12/03 01:18:29;;;;;;;21.52;11.13;;;;;;;0.88;47.79;101560.94;4936877;29;20044;-76
2023/12/03 01:20:58;;;;;;;22.48;10.98;;;;;;;0.89;47.59;101554.63;4951199;28;20134;-76
2023/12/03 01:23:26;;;;;;;25.45;11.80;;;;;;;0.89;47.94;101553.75;4948047;28;20429;-76
2023/12/03 01:25:55;;;;;;;23.92;11.73;;;;;;;0.90;47.83;101552.81;4953086;28;20043;-76
2023/12/03 01:28:23;;;;;;;22.13;11.65;;;;;;;0.90;47.75;101558.22;4945551;29;20047;-77
2023/12/03 01:30:51;;;;;;;24.02;11.60;;;;;;;0.91;47.94;101560.84;4948231;29;20649;-76
2023/12/03 01:33:19;;;;;;;21.88;11.63;;;;;;;0.91;47.91;101563.53;4945472;29;20053;-76
2023/12/03 01:35:47;;;;;;;22.25;10.93;;;;;;;0.92;48.13;101572.50;4949542;28;20053;-76
2023/12/03 01:38:16;;;;;;;21.80;10.90;;;;;;;0.94;47.86;101578.69;4946770;29;20052;-76
2023/12/03 01:40:52;;;;;;;20.85;10.57;;;;;;;0.96;48.34;101576.84;4950897;29;20139;-76
2023/12/03 01:43:20;;;;;;;19.85;11.20;;;;;;;0.95;47.96;101577.78;4952644;28;20047;-76
2023/12/03 01:45:48;;;;;;;20.50;10.68;;;;;;;0.95;47.80;101588.56;4933408;28;20086;-76
2023/12/03 01:48:16;;;;;;;20.63;11.20;;;;;;;0.96;48.10;101591.19;4944818;29;20579;-76
2023/12/03 01:50:45;;;;;;;22.08;10.80;;;;;;;0.97;47.87;101589.38;4951212;28;20058;-76
2023/12/03 01:53:17;;;;;;;19.88;11.18;;;;;;;0.98;47.77;101596.53;4952580;28;20054;-76
2023/12/03 01:55:46;;;;;;;19.85;10.15;;;;;;;0.99;48.16;101592.91;4952799;28;20055;-76
2023/12/03 01:58:14;;;;;;;21.58;11.10;;;;;;;0.99;48.03;101592.91;4953635;29;20043;-76
2023/12/03 02:00:42;;;;;;;21.25;11.05;;;;;;;1.00;48.26;101597.38;4940029;29;20051;-76
2023/12/03 02:03:17;;;;;;;21.35;10.55;;;;;;;1.00;48.15;101597.38;4951371;28;20061;-76
2023/12/03 02:05:48;;;;;;;20.02;10.80;;;;;;;1.01;48.19;101599.97;4948104;28;20077;-76
2023/12/03 02:08:17;;;;;;;20.23;10.93;;;;;;;0.99;48.11;101596.50;4952907;28;20118;-76
2023/12/03 02:10:46;;;;;;;22.30;11.45;;;;;;;1.01;48.10;101602.69;4939460;29;20468;-76
2023/12/03 02:13:14;;;;;;;19.35;10.75;;;;;;;1.01;48.10;101596.44;4933639;29;20058;-76
2023/12/03 02:15:42;;;;;;;20.30;10.63;;;;;;;1.01;47.95;101599.97;4950912;29;20099;-76
2023/12/03 02:18:11;;;;;;;21.48;10.80;;;;;;;1.02;48.13;101598.16;4950418;29;20058;-76
2023/12/03 02:20:39;;;;;;;19.45;9.98;;;;;;;1.01;48.14;101599.13;4942633;29;20079;-76
2023/12/03 02:23:09;;;;;;;20.02;10.95;;;;;;;1.02;47.99;101604.44;4952449;28;20047;-76
2023/12/03 02:25:36;;;;;;;22.80;11.38;;;;;;;1.02;48.10;101608.94;4953555;29;20055;-76
2023/12/03 02:28:05;;;;;;;20.13;10.63;;;;;;;1.02;48.07;101604.44;4947595;29;20107;-76
2023/12/03 02:30:33;;;;;;;21.08;10.75;;;;;;;1.02;48.04;101612.53;4937213;29;20059;-78
2023/12/03 02:33:01;;;;;;;21.73;11.43;;;;;;;1.03;48.04;101613.41;4944158;28;20122;-76
2023/12/03 02:35:29;;;;;;;20.58;10.27;;;;;;;1.03;48.16;101610.72;4941021;28;20449;-77
2023/12/03 02:37:57;;;;;;;19.75;10.57;;;;;;;1.04;48.29;101609.78;4950528;28;20504;-77
2023/12/03 02:40:26;;;;;;;21.88;11.13;;;;;;;1.05;48.15;101608.84;4936387;29;20047;-76
2023/12/03 02:42:54;;;;;;;19.58;10.32;;;;;;;1.04;47.91;101604.41;4948354;28;20053;-77
2023/12/03 02:45:22;;;;;;;18.90;10.15;;;;;;;1.04;48.14;101607.97;4948143;28;20075;-77
2023/12/03 02:47:50;;;;;;;21.10;10.20;;;;;;;1.05;48.07;101606.16;4945833;29;20042;-77
2023/12/03 02:50:18;;;;;;;21.42;10.95;;;;;;;1.05;48.15;101606.16;4952322;28;20138;-76
2023/12/03 02:52:46;;;;;;;20.77;10.40;;;;;;;1.05;48.01;101608.84;4948344;29;20453;-76
2023/12/03 02:55:13;;;;;;;18.95;10.00;;;;;;;1.05;48.10;101606.16;4952784;28;20047;-77
2023/12/03 02:57:43;;;;;;;19.08;9.75;;;;;;;1.06;48.16;101618.69;4952556;29;20086;-76
2023/12/03 03:00:11;;;;;;;20.63;10.38;;;;;;;1.05;48.30;101615.13;4950805;28;20423;-76
2023/12/03 03:02:40;;;;;;;20.35;10.38;;;;;;;1.05;48.22;101614.25;4938974;29;20065;-76
2023/12/03 03:05:08;;;;;;;18.38;9.90;;;;;;;1.06;47.96;101619.59;4931418;29;20103;-76
2023/12/03 03:07:36;;;;;;;22.30;11.65;;;;;;;1.05;48.00;101615.13;4950410;29;20047;-76
2023/12/03 03:10:05;;;;;;;19.77;10.13;;;;;;;1.06;48.06;101616.88;4941253;28;20094;-76
2023/12/03 03:12:33;;;;;;;19.45;10.52;;;;;;;1.06;48.07;101606.09;4951164;29;20040;-76
2023/12/03 03:15:02;;;;;;;18.50;9.98;;;;;;;1.07;48.17;101609.69;4932864;29;20061;-76
2023/12/03 03:17:30;;;;;;;18.65;9.93;;;;;;;1.06;48.18;101611.50;4950644;28;20134;-76
2023/12/03 03:19:58;;;;;;;17.45;9.85;;;;;;;1.06;48.31;101616.88;4950956;28;20058;-76
2023/12/03 03:22:26;;;;;;;19.83;10.48;;;;;;;1.06;48.26;101614.19;4933135;29;20053;-76
2023/12/03 03:24:54;;;;;;;18.38;9.60;;;;;;;1.07;48.21;101621.34;4937330;28;20067;-76
2023/12/03 03:27:22;;;;;;;19.67;9.52;;;;;;;1.07;48.22;101618.66;4936640;29;20048;-76
2023/12/03 03:29:50;;;;;;;19.05;9.95;;;;;;;1.07;48.19;101621.34;4921506;29;20130;-76
2023/12/03 03:32:19;;;;;;;17.52;9.18;;;;;;;1.09;48.56;101626.69;4951212;28;20047;-76
2023/12/03 03:34:47;;;;;;;18.58;9.60;;;;;;;1.09;48.27;101624.00;4949185;29;20126;-76
2023/12/03 03:37:15;;;;;;;17.45;9.13;;;;;;;1.08;48.27;101624.94;4948647;28;20135;-76
2023/12/03 03:39:43;;;;;;;18.50;9.35;;;;;;;1.09;48.26;101630.22;4951071;29;20055;-76
2023/12/03 03:42:11;;;;;;;18.08;9.20;;;;;;;1.08;48.43;101628.50;4951441;28;20051;-76
2023/12/03 03:44:39;;;;;;;17.13;9.18;;;;;;;1.09;48.34;101624.84;4927991;29;20055;-76
2023/12/03 03:47:07;;;;;;;17.30;8.75;;;;;;;1.09;48.25;101624.00;4939431;29;20046;-76
2023/12/03 03:49:36;;;;;;;14.48;8.35;;;;;;;1.09;48.12;101627.53;4949887;28;20134;-76
2023/12/03 03:52:05;;;;;;;15.63;8.25;;;;;;;1.09;48.19;101629.38;4928667;29;21322;-76
2023/12/03 03:54:33;;;;;;;14.05;8.25;;;;;;;1.09;48.13;101632.09;4951076;29;20039;-76
2023/12/03 03:57:02;;;;;;;14.77;7.97;;;;;;;1.09;48.16;101629.38;4947173;28;20501;-76
2023/12/03 03:59:30;;;;;;;15.57;8.05;;;;;;;1.08;48.14;101630.31;4950009;29;20051;-76
2023/12/03 04:01:58;;;;;;;14.35;8.15;;;;;;;1.08;48.34;101636.59;4949344;29;20043;-76
2023/12/03 04:04:26;;;;;;;16.33;8.60;;;;;;;1.07;48.10;101642.91;4951352;28;20047;-76
2023/12/03 04:06:55;;;;;;;17.42;8.35;;;;;;;1.08;48.28;101641.97;4949732;28;20051;-76
2023/12/03 04:09:23;;;;;;;15.63;7.88;;;;;;;1.07;48.23;101639.34;4951497;29;20047;-76
2023/12/03 04:11:51;;;;;;;16.30;8.30;;;;;;;1.07;48.27;101637.53;4927070;29;20043;-76
2023/12/03 04:14:19;;;;;;;16.38;8.57;;;;;;;1.07;48.06;101633.94;4933467;29;20152;-77
2023/12/03 04:16:47;;;;;;;17.67;8.75;;;;;;;1.06;48.08;101627.66;4946298;28;20043;-76
2023/12/03 04:19:15;;;;;;;15.98;8.25;;;;;;;1.05;47.97;101622.34;4949276;28;20053;-76
2023/12/03 04:21:43;;;;;;;15.00;8.40;;;;;;;1.04;47.99;101618.75;4934120;28;20057;-76
2023/12/03 04:24:12;;;;;;;16.65;8.30;;;;;;;1.04;47.99;101624.16;4947249;29;20054;-76
2023/12/03 04:26:42;;;;;;;15.32;8.63;;;;;;;1.03;48.15;101624.19;4932696;29;20456;-77
2023/12/03 04:29:10;;;;;;;13.75;7.72;;;;;;;1.02;48.08;101627.81;4951066;28;20055;-77
2023/12/03 04:31:38;;;;;;;15.35;8.48;;;;;;;1.01;48.03;101628.78;4934646;29;20146;-76
2023/12/03 04:34:07;;;;;;;14.02;7.95;;;;;;;1.01;47.99;101626.09;4948816;29;20043;-76
2023/12/03 04:36:36;;;;;;;13.90;7.55;;;;;;;0.99;48.24;101627.94;4951499;29;20421;-76
2023/12/03 04:39:06;;;;;;;14.32;7.93;;;;;;;0.99;48.00;101623.44;4933315;29;20469;-76
2023/12/03 04:41:36;;;;;;;15.02;8.50;;;;;;;0.99;48.05;101620.75;4928150;29;20528;-77
2023/12/03 04:44:05;;;;;;;13.93;7.80;;;;;;;0.98;48.17;101624.38;4943979;28;20111;-76
2023/12/03 04:46:33;;;;;;;14.13;8.18;;;;;;;0.97;48.05;101621.72;4926219;29;20047;-76
2023/12/03 04:49:02;;;;;;;14.30;7.40;;;;;;;0.97;48.35;101624.41;4949701;28;20107;-76
2023/12/03 04:51:30;;;;;;;13.75;8.30;;;;;;;0.98;48.03;101626.19;4950009;28;20050;-76
2023/12/03 04:53:58;;;;;;;14.68;7.47;;;;;;;0.97;48.05;101627.13;4941161;28;20393;-76
2023/12/03 04:56:26;;;;;;;14.70;7.35;;;;;;;0.97;48.33;101630.69;4947913;28;20035;-76
2023/12/03 04:58:55;;;;;;;14.65;8.18;;;;;;;0.98;48.04;101628.88;4943751;29;20040;-76
2023/12/03 05:01:23;;;;;;;16.05;8.10;;;;;;;0.97;48.20;101633.38;4941432;28;20074;-76
2023/12/03 05:03:51;;;;;;;12.95;6.80;;;;;;;0.98;48.16;101634.28;4948222;28;20130;-76
2023/12/03 05:06:19;;;;;;;15.05;7.47;;;;;;;0.97;48.16;101637.91;4950436;29;20263;-76
2023/12/03 05:08:47;;;;;;;12.60;6.72;;;;;;;0.98;48.22;101639.66;4933211;29;20560;-76
2023/12/03 05:11:15;;;;;;;12.32;7.15;;;;;;;0.99;48.12;101646.81;4949608;28;20043;-76
2023/12/03 05:13:43;;;;;;;13.23;7.15;;;;;;;0.99;48.09;101652.22;4942275;28;20047;-76
2023/12/03 05:16:12;;;;;;;13.73;7.25;;;;;;;1.00;48.11;101646.78;4929110;29;20138;-76
2023/12/03 05:18:40;;;;;;;15.70;7.05;;;;;;;0.99;48.09;101657.59;4950566;29;20267;-76
2023/12/03 05:21:09;;;;;;;12.60;6.60;;;;;;;1.00;48.11;101656.66;4948452;28;20046;-76
2023/12/03 05:23:37;;;;;;;13.05;7.18;;;;;;;0.99;48.12;101658.47;4943028;29;20106;-76
2023/12/03 05:26:05;;;;;;;12.10;6.88;;;;;;;1.00;48.05;101659.38;4942638;28;20043;-76
2023/12/03 05:28:33;;;;;;;10.13;6.00;;;;;;;0.99;48.04;101652.22;4949438;28;20099;-76
2023/12/03 05:31:01;;;;;;;11.68;6.15;;;;;;;1.00;48.12;101662.06;4949702;28;20416;-76
2023/12/03 05:33:30;;;;;;;12.75;6.75;;;;;;;1.01;48.24;101659.28;4932342;29;20043;-76
2023/12/03 05:35:59;;;;;;;11.05;6.15;;;;;;;1.00;48.15;101659.38;4947422;29;20440;-77
2023/12/03 05:38:26;;;;;;;11.88;6.38;;;;;;;1.01;48.38;101667.38;4948301;28;20051;-76
2023/12/03 05:40:54;;;;;;;13.02;6.90;;;;;;;1.01;48.13;101664.66;4930581;29;20044;-76
2023/12/03 05:43:22;;;;;;;13.05;6.53;;;;;;;1.02;48.12;101674.53;4933067;29;20462;-76
2023/12/03 05:45:50;;;;;;;11.57;5.72;;;;;;;1.02;48.17;101674.53;4943593;28;20047;-76
2023/12/03 05:48:18;;;;;;;12.30;6.32;;;;;;;1.02;48.12;101674.53;4934343;29;20079;-76
2023/12/03 05:50:48;;;;;;;12.57;6.50;;;;;;;1.04;48.07;101679.88;4950381;28;20043;-77
2023/12/03 05:53:16;;;;;;;11.75;6.80;;;;;;;1.03;48.33;101684.38;4948647;29;20508;-76
2023/12/03 05:55:43;;;;;;;11.23;5.90;;;;;;;1.03;48.20;101680.81;4931559;29;20130;-76
2023/12/03 05:58:11;;;;;;;10.30;5.47;;;;;;;1.03;48.26;101675.41;4926706;29;20051;-76
2023/12/03 06:00:39;;;;;;;11.75;6.40;;;;;;;1.04;48.27;101677.16;4943904;29;20058;-76
2023/12/03 06:03:07;;;;;;;10.68;5.60;;;;;;;1.05;48.22;101676.25;4951220;28;20051;-76
2023/12/03 06:05:35;;;;;;;11.68;6.13;;;;;;;1.04;47.99;101675.34;4943677;28;20429;-76
2023/12/03 06:08:05;;;;;;;11.27;6.30;;;;;;;1.06;48.22;101680.69;4935163;29;20274;-76
2023/12/03 06:10:33;;;;;;;9.98;5.78;;;;;;;1.05;48.10;101681.63;4952678;28;20043;-76
2023/12/03 06:13:01;;;;;;;10.38;6.22;;;;;;;1.04;48.14;101690.66;4949811;29;20054;-76
2023/12/03 06:15:29;;;;;;;11.15;6.22;;;;;;;1.05;48.10;101695.09;4933412;29;20245;-76
2023/12/03 06:17:56;;;;;;;10.98;5.72;;;;;;;1.04;48.17;101701.44;4943630;28;20043;-76
2023/12/03 06:20:24;;;;;;;10.98;5.90;;;;;;;1.03;48.10;101697.84;4929321;28;20699;-76
2023/12/03 06:22:52;;;;;;;11.23;5.88;;;;;;;1.03;48.18;101705.06;4931068;29;20043;-76
2023/12/03 06:25:22;;;;;;;12.77;6.30;;;;;;;1.03;48.08;101703.25;4934560;29;20043;-76
2023/12/03 06:27:49;;;;;;;11.80;6.03;;;;;;;1.03;48.00;101711.34;4947948;29;20039;-76
2023/12/03 06:30:18;;;;;;;9.63;6.03;;;;;;;1.02;48.16;101708.69;4951054;29;20039;-76
2023/12/03 06:32:47;;;;;;;11.20;6.20;;;;;;;1.02;48.22;101712.25;4949865;28;20517;-76
2023/12/03 06:35:15;;;;;;;12.05;6.20;;;;;;;1.02;47.99;101706.00;4935003;29;20470;-76
2023/12/03 06:37:43;;;;;;;10.55;6.25;;;;;;;1.00;47.99;101711.47;4951980;28;20051;-76
2023/12/03 06:40:12;;;;;;;10.93;5.63;;;;;;;1.00;48.00;101716.84;4951823;28;20094;-76
2023/12/03 06:42:41;;;;;;;11.82;6.53;;;;;;;1.01;48.18;101725.81;4947164;29;20093;-76
2023/12/03 06:45:10;;;;;;;10.20;6.15;;;;;;;1.00;47.96;101722.25;4949210;28;20126;-76
2023/12/03 06:47:38;;;;;;;10.70;6.13;;;;;;;1.00;48.02;101724.06;4950357;28;20059;-76
2023/12/03 06:50:07;;;;;;;10.77;6.13;;;;;;;1.01;48.23;101723.97;4945940;28;20102;-76
2023/12/03 06:52:35;;;;;;;10.38;5.72;;;;;;;1.01;47.93;101720.44;4947037;29;20118;-76
2023/12/03 06:55:03;;;;;;;10.30;5.63;;;;;;;1.01;48.15;101723.13;4950728;28;20035;-77
2023/12/03 06:57:31;;;;;;;10.75;5.63;;;;;;;1.00;47.91;101727.63;4951325;28;20057;-76
2023/12/03 07:00:00;;;;;;;12.40;5.72;;;;;;;1.00;47.93;101719.53;4929632;29;20054;-76
2023/12/03 07:02:28;;;;;;;12.27;5.90;;;;;;;0.98;47.89;101726.78;4947384;29;20043;-76
2023/12/03 07:04:56;;;;;;;11.60;6.03;;;;;;;0.99;47.74;101727.69;4947373;28;20416;-76
2023/12/03 07:07:24;;;;;;;11.20;5.82;;;;;;;0.98;47.89;101732.19;4933031;29;20107;-74
2023/12/03 07:09:52;;;;;;;10.73;5.85;;;;;;;0.98;47.85;101734.88;4945098;28;20054;-76
2023/12/03 07:12:20;;;;;;;11.60;6.18;;;;;;;0.96;47.81;101736.72;4947564;28;20050;-77
2023/12/03 07:14:48;;;;;;;11.80;6.15;;;;;;;0.96;47.81;101733.16;4945815;28;20047;-71
2023/12/03 07:17:18;;;;;;;11.85;6.03;;;;;;;0.97;47.88;101745.72;4950046;28;20039;-77
2023/12/03 07:19:46;;;;;;;12.18;6.43;;;;;;;0.95;47.88;101755.66;4931559;29;20056;-78
2023/12/03 07:22:14;;;;;;;13.52;6.47;;;;;;;0.94;47.82;101756.56;4934587;29;20051;-77
2023/12/03 07:24:42;;;;;;;10.35;5.80;;;;;;;0.94;47.91;101759.28;4943058;29;20126;-77
2023/12/03 07:27:10;;;;;;;10.52;5.95;;;;;;;0.93;48.17;101763.78;4952570;29;20509;-75
2023/12/03 07:29:38;;;;;;;11.10;6.05;;;;;;;0.93;48.07;101763.78;4953095;29;20315;-77
2023/12/03 07:32:07;;;;;;;13.10;6.45;;;;;;;0.93;47.96;101762.94;4985545;23;20088;-80
2023/12/03 07:34:36;;;;;;;12.52;6.40;;;;;;;0.93;48.04;101757.53;4946008;28;20047;-81
2023/12/03 07:37:04;;;;;;;13.07;6.13;;;;;;;0.93;47.84;101757.53;4938926;28;20102;-78
2023/12/03 07:39:32;;;;;;;12.63;6.55;;;;;;;0.93;47.91;101752.16;4954056;28;20135;-79
2023/12/03 07:42:00;;;;;;;11.40;6.95;;;;;;;0.92;47.91;101755.78;4952029;28;20488;-79
2023/12/03 07:44:29;;;;;;;12.77;6.70;;;;;;;0.92;47.94;101751.25;4956777;28;20047;-80
2023/12/03 07:46:58;;;;;;;12.93;7.45;;;;;;;0.92;47.74;101753.97;4950729;28;20051;-79
2023/12/03 07:49:25;;;;;;;12.73;6.90;;;;;;;0.92;47.71;101758.47;4958206;28;20586;-79
2023/12/03 07:51:55;;;;;;;11.75;6.68;;;;;;;0.93;47.83;101760.22;4970609;28;20098;-79
2023/12/03 07:54:23;;;;;;;12.25;6.72;;;;;;;0.91;47.80;101765.66;4960047;28;20051;-81
2023/12/03 07:56:51;;;;;;;13.82;7.65;;;;;;;0.91;47.93;101762.09;4959829;28;20034;-79
2023/12/03 07:59:19;;;;;;;13.40;6.95;;;;;;;0.91;47.54;101764.78;4954547;28;20480;-80
2023/12/03 08:01:47;;;;;;;11.05;6.22;;;;;;;0.90;47.56;101757.63;4957829;28;20047;-80
2023/12/03 08:04:15;;;;;;;14.43;6.82;;;;;;;0.89;47.78;101769.34;4962912;28;20043;-78
2023/12/03 08:06:43;;;;;;;13.85;7.50;;;;;;;0.88;47.69;101772.97;4955043;28;20047;-81
2023/12/03 08:09:13;;;;;;;11.90;6.80;;;;;;;0.90;47.67;101773.78;4954376;28;20523;-80
2023/12/03 08:11:41;;;;;;;15.05;7.28;;;;;;;0.88;47.70;101773.84;4956738;28;20051;-79
2023/12/03 08:14:09;;;;;;;12.82;6.95;;;;;;;0.89;47.78;101778.31;4961103;28;20053;-75
2023/12/03 08:16:37;;;;;;;14.70;6.97;;;;;;;0.90;47.75;101776.50;4954955;28;20061;-76
2023/12/03 08:19:04;;;;;;;12.88;7.13;;;;;;;0.91;48.02;101775.56;4943811;28;20085;-75
2023/12/03 08:21:36;;;;;;;13.00;6.97;;;;;;;0.92;47.91;101775.53;4946956;28;20043;-76
2023/12/03 08:24:05;;;;;;;12.43;6.93;;;;;;;0.92;48.09;101780.91;4948289;28;20061;-75
2023/12/03 08:26:35;;;;;;;15.48;7.20;;;;;;;0.94;47.78;101773.63;4955641;28;20181;-76
2023/12/03 08:29:04;;;;;;;13.27;7.72;;;;;;;0.94;48.04;101779.03;4960557;28;20095;-76
2023/12/03 08:31:32;;;;;;;13.43;7.40;;;;;;;0.95;47.87;101777.22;4949029;28;20480;-74
2023/12/03 08:34:00;;;;;;;14.30;7.20;;;;;;;0.96;47.90;101774.47;4935802;28;20126;-75
2023/12/03 08:36:31;;;;;;;12.90;6.82;;;;;;;0.98;47.87;101774.44;4950528;29;20047;-75
2023/12/03 08:39:01;;;;;;;12.35;7.13;;;;;;;0.97;47.87;101770.84;4948330;28;20114;-75
2023/12/03 08:41:29;;;;;;;12.95;7.07;;;;;;;0.98;47.81;101766.34;4940572;28;20043;-72
2023/12/03 08:43:58;;;;;;;14.93;6.72;;;;;;;1.00;47.65;101772.56;4951698;28;20497;-75
2023/12/03 08:46:26;;;;;;;13.27;7.03;;;;;;;0.99;47.63;101773.50;4951585;28;20050;-74
2023/12/03 08:48:54;;;;;;;14.07;6.47;;;;;;;0.99;47.62;101774.38;4944275;28;20409;-75
2023/12/03 08:51:22;;;;;;;12.70;7.22;;;;;;;0.99;47.53;101782.47;4949922;29;20047;-77
2023/12/03 08:53:50;;;;;;;13.43;7.20;;;;;;;1.00;47.71;101775.25;4949975;28;20043;-75
2023/12/03 08:56:18;;;;;;;14.50;6.88;;;;;;;1.00;47.58;101776.16;4948851;28;20478;-76
2023/12/03 08:58:46;;;;;;;14.13;7.43;;;;;;;1.01;47.67;101772.50;4937994;28;20133;-73
2023/12/03 09:01:15;;;;;;;13.88;6.93;;;;;;;1.02;47.68;101771.56;4945495;28;20059;-74
2023/12/03 09:03:43;;;;;;;13.18;7.38;;;;;;;1.03;47.81;101776.03;4943501;29;20131;-75
2023/12/03 09:06:11;;;;;;;15.15;6.80;;;;;;;1.05;47.63;101775.97;4949759;28;20078;-75
2023/12/03 09:08:39;;;;;;;13.02;7.13;;;;;;;1.08;47.67;101775.88;4944925;28;20137;-75
2023/12/03 09:11:10;;;;;;;13.40;7.47;;;;;;;1.08;47.69;101776.78;4948960;28;20039;-75
2023/12/03 09:13:38;;;;;;;13.00;7.10;;;;;;;1.14;47.78;101777.50;4944698;28;20583;-75
2023/12/03 09:16:08;;;;;;;14.32;7.07;;;;;;;1.16;47.79;101784.59;4946416;28;20042;-74
2023/12/03 09:18:38;;;;;;;14.80;7.35;;;;;;;1.21;47.68;101785.31;4947191;29;20521;-75
2023/12/03 09:21:11;;;;;;;16.80;7.45;;;;;;;1.24;47.88;101781.66;4950262;28;20067;-74
2023/12/03 09:23:40;;;;;;;14.20;7.10;;;;;;;1.26;48.11;101787.88;4944694;28;20314;-75
2023/12/03 09:26:08;;;;;;;14.15;7.43;;;;;;;1.31;47.91;101789.47;4944257;28;20055;-76
2023/12/03 09:28:36;;;;;;;14.43;7.82;;;;;;;1.34;47.74;101794.72;4938061;28;20498;-75
2023/12/03 09:31:05;;;;;;;15.00;7.93;;;;;;;1.38;47.82;101785.63;4946626;28;20073;-75
2023/12/03 09:33:33;;;;;;;14.35;7.47;;;;;;;1.42;47.60;101791.81;4948348;28;20047;-75
2023/12/03 09:36:02;;;;;;;13.57;7.57;;;;;;;1.49;47.54;101801.44;4948303;28;20043;-75
2023/12/03 09:38:30;;;;;;;16.92;8.15;;;;;;;1.51;47.61;101796.00;4948164;28;20047;-75
2023/12/03 09:41:01;;;;;;;16.25;8.25;;;;;;;1.56;47.28;101808.38;4942119;28;20404;-75
2023/12/03 09:43:31;;;;;;;14.68;7.43;;;;;;;1.58;47.32;101809.22;4951651;28;20058;-75
2023/12/03 09:46:01;;;;;;;13.68;6.90;;;;;;;1.62;47.50;101800.06;4947448;28;20051;-75
2023/12/03 09:48:32;;;;;;;15.70;8.35;;;;;;;1.66;47.53;101790.94;4947974;28;20048;-75
2023/12/03 09:51:02;;;;;;;12.73;7.03;;;;;;;1.71;47.63;101804.25;4939817;28;20145;-75
2023/12/03 09:53:33;;;;;;;12.32;7.15;;;;;;;1.76;47.38;101813.94;4944826;28;20138;-75
2023/12/03 09:56:03;;;;;;;17.00;8.77;;;;;;;1.80;47.47;101806.63;4942585;28;20063;-75
2023/12/03 09:58:31;;;;;;;14.40;7.40;;;;;;;1.85;47.46;101810.91;4958847;28;20051;-75
2023/12/03 10:01:01;;;;;;;16.02;8.27;;;;;;;1.91;47.22;101814.34;4946636;28;20446;-75
2023/12/03 10:03:29;;;;;;;15.13;7.35;;;;;;;1.96;47.47;101809.63;4949700;29;20058;-75
2023/12/03 10:05:57;;;;;;;14.25;8.15;;;;;;;2.00;47.45;101809.47;4948736;29;20053;-75
2023/12/03 10:08:29;;;;;;;15.10;8.00;;;;;;;2.05;47.10;101812.88;4945063;28;20499;-75
2023/12/03 10:11:02;;;;;;;14.38;7.75;;;;;;;2.11;46.95;101819.88;4951240;29;20039;-75
2023/12/03 10:13:34;;;;;;;13.70;7.63;;;;;;;2.15;47.08;101810.72;4953536;28;20067;-77
2023/12/03 10:16:02;;;;;;;14.02;7.60;;;;;;;2.19;47.10;101810.53;4949320;28;20051;-76
2023/12/03 10:18:30;;;;;;;13.75;7.15;;;;;;;2.24;47.05;101807.69;4951855;29;20134;-73
2023/12/03 10:21:08;;;;;;;15.00;7.70;;;;;;;2.32;45.76;101810.09;4952777;28;20043;-76
2023/12/03 10:23:39;;;;;;;12.90;7.50;;;;;;;2.33;46.40;101809.16;4952868;28;20058;-75
2023/12/03 10:26:11;;;;;;;14.20;7.75;;;;;;;2.35;46.03;101808.13;4950706;28;20508;-76
2023/12/03 10:28:40;;;;;;;12.65;6.63;;;;;;;2.35;46.51;101800.03;4948796;28;20071;-75
2023/12/03 10:31:11;;;;;;;12.77;7.47;;;;;;;2.40;45.94;101799.88;4952584;28;20051;-77
2023/12/03 10:33:39;;;;;;;14.60;7.82;;;;;;;2.40;46.31;101806.16;4948763;29;20123;-76
2023/12/03 10:36:09;;;;;;;15.10;8.30;;;;;;;2.41;46.13;101791.69;4950510;28;20508;-76
2023/12/03 10:38:40;;;;;;;13.57;6.93;;;;;;;2.43;45.90;101797.03;4948920;28;20058;-75
2023/12/03 10:41:09;;;;;;;13.82;7.30;;;;;;;2.44;46.22;101804.22;4952728;28;20122;-76
2023/12/03 10:43:40;;;;;;;13.98;7.50;;;;;;;2.44;46.11;101791.59;4953458;28;20051;-77
2023/12/03 10:46:09;;;;;;;15.40;7.68;;;;;;;2.46;46.11;101789.72;4950097;28;20134;-75
2023/12/03 10:48:38;;;;;;;17.00;8.20;;;;;;;2.45;46.26;101781.66;4951001;29;20573;-76
2023/12/03 10:51:08;;;;;;;13.57;7.10;;;;;;;2.49;46.02;101786.00;4952380;28;20408;-76
2023/12/03 10:53:39;;;;;;;13.77;7.40;;;;;;;2.50;46.12;101783.22;4942129;28;20039;-77
2023/12/03 10:56:08;;;;;;;15.57;7.82;;;;;;;2.50;46.20;101772.41;4951879;28;20568;-76
2023/12/03 10:58:38;;;;;;;15.95;8.02;;;;;;;2.52;46.04;101775.94;4951790;28;20134;-74
2023/12/03 11:01:09;;;;;;;14.52;8.25;;;;;;;2.53;45.83;101764.19;4953837;28;20530;-74
2023/12/03 11:03:56;;;;;;;17.17;8.77;;;;;;;2.56;45.00;101763.22;4943601;29;20098;-74
2023/12/03 11:06:25;;;;;;;14.77;7.65;;;;;;;2.55;45.90;101758.75;4953431;28;20134;-74
2023/12/03 11:08:56;;;;;;;13.85;8.15;;;;;;;2.57;45.46;101765.84;4950915;28;20063;-74
2023/12/03 11:11:24;;;;;;;13.98;7.13;;;;;;;2.55;45.78;101767.72;4940441;28;20592;-74
2023/12/03 11:13:53;;;;;;;13.43;7.90;;;;;;;2.54;45.49;101768.66;4952215;28;20039;-74
2023/12/03 11:16:22;;;;;;;15.48;7.80;;;;;;;2.55;45.68;101756.03;4951554;28;20039;-74
2023/12/03 11:18:57;;;;;;;13.77;7.68;;;;;;;2.54;45.11;101760.56;4949257;28;20036;-74
2023/12/03 11:21:38;;;;;;;13.18;7.03;;;;;;;2.53;44.63;101749.81;4933193;29;20047;-74
2023/12/03 11:24:48;;;;;;;12.30;6.85;;;;;;;2.50;44.42;101740.00;4940175;28;20043;-74
2023/12/03 11:27:17;;;;;;;12.50;7.07;;;;;;;2.48;45.46;101744.59;4918787;29;20056;-74
2023/12/03 11:29:50;;;;;;;12.77;6.85;;;;;;;2.50;45.17;101739.09;4950950;28;20040;-74
2023/12/03 11:32:18;;;;;;;13.45;7.13;;;;;;;2.48;45.45;101741.03;4952323;28;20437;-74